Alva, Mississippi
Current Conditions -  °F | °C
As of 6:24 AM on Friday 24 Oct 2014 (Local Time) from KGWO Reporting Station
Haze Haze  
Wind Chill:   Ceiling: Unl
Heat Index:   Visibility: 1.2mi
Dew Point:   Wind: 0mph
Humidity: 96%   Direction: NA
Pressure: 30.14"   Gusts: NA
Location:  33.6702°N, 89.6861°W
Report Text: KGWO 241124Z AUTO 00000KT 1 1/4SM BR FEW003 07/06 A3014 RMK AO2 VIS 1/2V3 T00670061 TSNO
Loading
Personal Weather Stations






























Interactive Weather Map
Tropical Storm Tracking
New forecast layout! Learn more

10-Day Weather Forecast

Advertisements
Track Severe Weather on mobile